ADDS METAR Data INFO
IDs: Format: Raw Decoded Include TAF

Data at: 0938 UTC 17 Oct 2017

KBCB 170915Z AUTO 00000KT 10SM CLR 03/03 A3034 RMK AO2 T00260025
KBCB 170855Z AUTO 00000KT 10SM CLR 03/03 A3033 RMK AO2 T00300027
KBCB 170840Z AUTO 00000KT 10SM CLR 03/03 A3033 RMK AO2 T00300026
KBCB 170823Z AUTO 00000KT 10SM CLR 03/03 A3032 RMK AO2
KBCB 170755Z AUTO 31003KT 10SM CLR 03/03 A3032 RMK AO2 T00320030
KBCB 170740Z AUTO 00000KT 10SM CLR 03/03 A3032 RMK AO2 T00290027
KBCB 170720Z AUTO 00000KT 10SM CLR 03/03 A3032 RMK AO2 T00340030
KBCB 170635Z AUTO 00000KT 10SM CLR 03/03 A3032 RMK AO2 T00330030
KBCB 170620Z AUTO 00000KT 10SM CLR 03/03 A3032 RMK AO2 T00320029
KBCB 170555Z AUTO 00000KT 10SM CLR 04/03 A3032 RMK AO2 T00360032 10097 20035
KBCB 170535Z AUTO 00000KT 10SM CLR 04/03 A3032 RMK AO2 T00360031
KBCB 170515Z AUTO 00000KT 10SM CLR 04/04 A3032 RMK AO2 T00440035
KBCB 170500Z AUTO 32003KT 10SM CLR 05/04 A3032 RMK AO2 T00450035
KBCB 170435Z AUTO 00000KT 10SM CLR 05/03 A3032 RMK AO2 T00450034
KBCB 170415Z AUTO 00000KT 10SM CLR 05/04 A3032 RMK AO2 T00530037
KBCB 170355Z AUTO 00000KT 10SM CLR 06/04 A3032 RMK AO2 T00570037
KBCB 170335Z AUTO 34003KT 10SM CLR 06/04 A3033 RMK AO2 T00600040
KBCB 170320Z AUTO 00000KT 10SM CLR 06/04 A3033 RMK AO2 T00560040
KBCB 170255Z AUTO 00000KT 10SM CLR 06/04 A3032 RMK AO2 T00560037
KBCB 170235Z AUTO 00000KT 10SM CLR 06/04 A3032 RMK AO2 T00590036
KBCB 170215Z AUTO 00000KT 10SM CLR 07/04 A3031 RMK AO2 T00660040
KBCB 170155Z AUTO 00000KT 10SM CLR 07/04 A3030 RMK AO2 T00730040
KBCB 170143Z AUTO 32003KT 10SM CLR 08/04 A3030 RMK AO2
KBCB 170115Z AUTO 33004KT 10SM CLR 08/04 A3029 RMK AO2 T00760039
KBCB 170100Z AUTO 32004KT 10SM CLR 08/04 A3029 RMK AO2 T00750039
KBCB 170040Z AUTO 30003KT 10SM CLR 08/04 A3029 RMK AO2 T00800035
KBCB 170015Z AUTO 00000KT 10SM CLR 09/03 A3028 RMK AO2 T00860031
KBCB 170000Z AUTO 00000KT 10SM CLR 10/03 A3027 RMK AO2 T00960031
KBCB 162335Z AUTO 31003KT 10SM CLR 10/04 A3026 RMK AO2 T00970035
KBCB 162320Z AUTO 33006KT 10SM CLR 11/03 A3025 RMK AO2 T01060029
KBCB 162303Z AUTO 33009KT 10SM CLR 11/03 A3024 RMK AO2
KBCB 162235Z AUTO 33010G14KT 10SM CLR 12/03 A3023 RMK AO2 T01170025
KBCB 162215Z AUTO 33009G14KT 10SM SCT050 12/03 A3023 RMK AO2 T01220029
KBCB 162200Z AUTO 34008KT 10SM SCT050 13/04 A3022 RMK AO2 T01270037
KBCB 162135Z AUTO 32014G19KT 10SM CLR 13/03 A3022 RMK AO2 T01280029
KBCB 162115Z AUTO 32012G15KT 10SM SCT045 12/04 A3022 RMK AO2 T01240039
KBCB 162100Z AUTO 32010G16KT 10SM SCT045 13/04 A3022 RMK AO2 T01300040
KBCB 162035Z AUTO 32009G17KT 10SM OVC045 13/04 A3022 RMK AO2 T01250043
KBCB 162015Z AUTO 34010G20KT 10SM OVC043 13/05 A3022 RMK AO2 T01280046
KBCB 162000Z AUTO 34011G16KT 10SM OVC041 13/04 A3022 RMK AO2 T01280041
KBCB 161935Z AUTO 32009KT 290V350 10SM BKN039 OVC046 13/05 A3022 RMK AO2 T01270052
KBCB 161920Z AUTO 32014G19KT 10SM BKN039 OVC046 13/05 A3022 RMK AO2 T01290045
KBCB 161855Z AUTO 32007G18KT 10SM OVC039 13/05 A3022 RMK AO2 T01300049
KBCB 161815Z AUTO 34013G18KT 10SM OVC037 13/05 A3022 RMK AO2 T01300052
KBCB 161755Z AUTO 33012G18KT 10SM OVC035 13/05 A3021 RMK AO2 T01320054 10137 20103
KBCB 161735Z AUTO 31010G18KT 10SM OVC035 13/06 A3022 RMK AO2 T01300055
KBCB 161710Z AUTO 30010G20KT 270V330 10SM OVC035 13/05 A3022 RMK AO2 T01290051
KBCB 161700Z AUTO 31010G15KT 10SM OVC035 13/06 A3022 RMK AO2 T01300055
KBCB 161635Z AUTO 32012G16KT 10SM OVC033 13/06 A3022 RMK AO2 T01260056
KBCB 161615Z AUTO 31012G16KT 10SM OVC033 13/06 A3022 RMK AO2 T01300061
KBCB 161600Z AUTO 31010G15KT 10SM OVC033 12/06 A3022 RMK AO2 T01220056
KBCB 161535Z AUTO 30008G15KT 10SM BKN035 12/05 A3021 RMK AO2 T01180050
KBCB 161515Z AUTO 31009G15KT 10SM BKN033 12/05 A3021 RMK AO2 T01230052
KBCB 161455Z AUTO 33009G16KT 10SM BKN033 12/06 A3021 RMK AO2 T01210055
KBCB 161443Z AUTO 32013G16KT 10SM BKN033 12/05 A3021 RMK AO2
KBCB 161420Z AUTO 30010G14KT 10SM BKN031 12/05 A3020 RMK AO2 T01170053
KBCB 161355Z AUTO 31010G16KT 10SM BKN029 11/06 A3020 RMK AO2 T01050055
KBCB 161335Z AUTO 31012G20KT 10SM SCT029 11/05 A3019 RMK AO2 T01050052
KBCB 161320Z AUTO 30010G19KT 10SM SCT031 11/05 A3018 RMK AO2 T01050054
KBCB 161255Z AUTO 31011G16KT 10SM SCT029 10/06 A3018 RMK AO2 T01040055
KBCB 161235Z AUTO 31008KT 10SM SCT027 11/06 A3016 RMK AO2 T01050060
KBCB 161215Z AUTO 29003KT 10SM BKN027 11/07 A3015 RMK AO2 T01050069
KBCB 161155Z AUTO 30004KT 10SM SCT022 SCT028 11/07 A3015 RMK AO2 60003 70012 T01060073 10167 20106
KBCB 161140Z AUTO 31011G15KT 10SM BKN022 11/08 A3013 RMK AO2 T01060078
KBCB 161115Z AUTO 29007KT 10SM OVC020 11/09 A3015 RMK AO2 T01100087
KBCB 161055Z AUTO 31005KT 10SM OVC020 11/09 A3013 RMK AO2 T01100090
KBCB 161035Z AUTO 29005KT 10SM OVC016 11/10 A3012 RMK AO2 T01100097
KBCB 161015Z AUTO 28004KT 10SM OVC014 11/10 A3012 RMK AO2 T01120098
KBCB 160955Z AUTO 30006G14KT 10SM BKN014 OVC018 12/10 A3011 RMK AO2 T01160102
KBCB 160930Z AUTO 31003KT 10SM OVC012 12/11 A3011 RMK AO2 T01200107
KBCB 160923Z AUTO 31009KT 10SM OVC012 12/11 A3010 RMK AO2
KBCB 160850Z AUTO 30005KT 10SM BKN016 BKN060 OVC095 13/12 A3008 RMK AO2 P0001 60003 T01280119
KBCB 160835Z AUTO 30008KT 270V330 10SM DZ SCT016 BKN021 OVC095 13/12 A3008 RMK AO2 P0001 T01300118
KBCB 160815Z AUTO 29007KT 10SM BKN019 BKN070 OVC085 14/13 A3008 RMK AO2 T01350127
KBCB 160800Z AUTO 26004KT 10SM -DZ BKN019 BKN049 OVC070 14/13 A3008 RMK AO2 T01370133
KBCB 160735Z AUTO 28004KT 10SM DZ BKN070 OVC075 14/14 A3008 RMK AO2 P0002 T01410135
KBCB 160715Z AUTO 27003KT 10SM DZ OVC065 15/14 A3008 RMK AO2 P0001 T01500142
KBCB 160655Z AUTO 28003KT 10SM RA OVC065 15/14 A3008 RMK AO2 T01540141
KBCB 160640Z AUTO 29006KT 10SM -DZ SCT020 SCT032 OVC055 16/14 A3007 RMK AO2 T01570144
KBCB 160610Z AUTO 28003KT 10SM SCT013 BKN040 OVC055 16/15 A3007 RMK AO2 T01630150
KBCB 160600Z AUTO 28004KT 10SM SCT013 SCT036 OVC043 17/15 A3007 RMK AO2 T01660150
KBCB 160535Z AUTO 31007KT 10SM BKN013 OVC028 17/17 A3006 RMK AO2 P0002 T01740167
KBCB 160515Z AUTO 30004KT 7SM RA SCT005 BKN012 OVC026 18/17 A3006 RMK AO2 P0002 T01760173
KBCB 160455Z AUTO 28005KT 4SM +RA BKN005 BKN009 OVC019 18/18 A3006 RMK AO2 P0006 T01810180 402590130
KBCB 160435Z AUTO 29004KT 5SM +RA BKN015 OVC020 18/18 A3006 RMK AO2 P0003 T01840180
KBCB 160415Z AUTO 29003KT 7SM +RA BKN015 BKN019 OVC042 19/18 A3006 RMK AO2 T01920178
KBCB 160355Z AUTO 30003KT 10SM SCT017 BKN033 OVC065 20/18 A3006 RMK AO2 T01950176
KBCB 160335Z AUTO 28003KT 10SM BKN036 BKN046 OVC065 21/18 A3006 RMK AO2 T02050178
KBCB 160315Z AUTO 00000KT 10SM SCT038 OVC046 21/18 A3006 RMK AO2 T02060175
KBCB 160255Z AUTO 00000KT 10SM BKN040 BKN050 OVC080 20/17 A3006 RMK AO2 T02000166
KBCB 160230Z AUTO 00000KT 10SM OVC080 21/18 A3006 RMK AO2 T02060175
KBCB 160215Z AUTO 23003KT 10SM BKN080 BKN090 20/17 A3005 RMK AO2 T02030170
KBCB 160155Z AUTO 22004KT 10SM BKN090 20/16 A3005 RMK AO2 T02000161
KBCB 160143Z AUTO 21003KT 10SM BKN090 20/16 A3005 RMK AO2
KBCB 160115Z AUTO 21003KT 10SM BKN090 21/15 A3005 RMK AO2 T02050150
KBCB 160055Z AUTO 21004KT 10SM BKN100 21/15 A3006 RMK AO2 T02110150
KBCB 160035Z AUTO 22004KT 10SM SCT070 22/15 A3006 RMK AO2 T02150150
KBCB 160010Z AUTO 00000KT 10SM BKN080 22/15 A3005 RMK AO2 T02160150
KBCB 160000Z AUTO 22004KT 10SM BKN080 22/15 A3005 RMK AO2 T02200150
KBCB 152335Z AUTO 24004KT 10SM BKN080 22/15 A3005 RMK AO2 T02220148
KBCB 152315Z AUTO 23005KT 10SM CLR 22/15 A3005 RMK AO2 T02220147
KBCB 152255Z AUTO 22005KT 10SM CLR 23/15 A3005 RMK AO2 T02270147
KBCB 152235Z AUTO 22004KT 10SM CLR 23/15 A3004 RMK AO2 T02340145
KBCB 152215Z AUTO 22004KT 10SM CLR 24/14 A3005 RMK AO2 T02410141
KBCB 152200Z AUTO 24003KT 10SM CLR 25/14 A3005 RMK AO2 T02450137